sensor_id;sensor_type;location;lat;lon;timestamp;P1;durP1;ratioP1;P2;durP2;ratioP2
13347;SDS011;6743;49.934;9.138;2023-09-07T00:02:17;2.65;;;2.22;;
13347;SDS011;6743;49.934;9.138;2023-09-07T00:04:43;2.33;;;2.12;;
13347;SDS011;6743;49.934;9.138;2023-09-07T00:07:09;1.80;;;1.70;;
13347;SDS011;6743;49.934;9.138;2023-09-07T00:09:35;2.15;;;2.00;;
13347;SDS011;6743;49.934;9.138;2023-09-07T00:12:02;2.28;;;2.10;;
13347;SDS011;6743;49.934;9.138;2023-09-07T00:14:28;2.60;;;2.10;;
13347;SDS011;6743;49.934;9.138;2023-09-07T00:16:55;2.28;;;2.08;;
13347;SDS011;6743;49.934;9.138;2023-09-07T00:19:22;2.40;;;1.90;;
13347;SDS011;6743;49.934;9.138;2023-09-07T00:21:48;3.00;;;2.20;;
13347;SDS011;6743;49.934;9.138;2023-09-07T00:24:16;2.50;;;1.85;;
13347;SDS011;6743;49.934;9.138;2023-09-07T00:26:43;1.90;;;1.80;;
13347;SDS011;6743;49.934;9.138;2023-09-07T00:29:09;2.75;;;2.17;;
13347;SDS011;6743;49.934;9.138;2023-09-07T00:31:35;2.10;;;1.90;;
13347;SDS011;6743;49.934;9.138;2023-09-07T00:34:01;2.17;;;2.05;;
13347;SDS011;6743;49.934;9.138;2023-09-07T00:36:27;2.17;;;1.98;;
13347;SDS011;6743;49.934;9.138;2023-09-07T00:38:53;1.60;;;1.50;;
13347;SDS011;6743;49.934;9.138;2023-09-07T00:41:19;2.45;;;2.25;;
13347;SDS011;6743;49.934;9.138;2023-09-07T00:43:45;2.83;;;2.20;;
13347;SDS011;6743;49.934;9.138;2023-09-07T00:46:12;1.85;;;1.75;;
13347;SDS011;6743;49.934;9.138;2023-09-07T00:48:38;2.00;;;1.85;;
13347;SDS011;6743;49.934;9.138;2023-09-07T00:51:04;2.37;;;2.15;;
13347;SDS011;6743;49.934;9.138;2023-09-07T00:53:30;2.10;;;1.98;;
13347;SDS011;6743;49.934;9.138;2023-09-07T00:55:56;2.37;;;1.95;;
13347;SDS011;6743;49.934;9.138;2023-09-07T00:58:23;2.15;;;1.70;;
13347;SDS011;6743;49.934;9.138;2023-09-07T01:00:50;2.35;;;1.98;;
13347;SDS011;6743;49.934;9.138;2023-09-07T01:03:17;2.28;;;1.83;;
13347;SDS011;6743;49.934;9.138;2023-09-07T01:05:46;2.00;;;1.80;;
13347;SDS011;6743;49.934;9.138;2023-09-07T01:08:19;2.28;;;1.85;;
13347;SDS011;6743;49.934;9.138;2023-09-07T01:10:50;2.60;;;1.87;;
13347;SDS011;6743;49.934;9.138;2023-09-07T01:13:16;2.17;;;1.98;;
13347;SDS011;6743;49.934;9.138;2023-09-07T01:15:43;1.98;;;1.83;;
13347;SDS011;6743;49.934;9.138;2023-09-07T01:18:09;2.97;;;1.95;;
13347;SDS011;6743;49.934;9.138;2023-09-07T01:20:37;2.15;;;1.85;;
13347;SDS011;6743;49.934;9.138;2023-09-07T01:23:07;1.83;;;1.73;;
13347;SDS011;6743;49.934;9.138;2023-09-07T01:25:33;2.03;;;1.90;;
13347;SDS011;6743;49.934;9.138;2023-09-07T01:28:00;2.10;;;1.90;;
13347;SDS011;6743;49.934;9.138;2023-09-07T01:30:26;2.15;;;2.05;;
13347;SDS011;6743;49.934;9.138;2023-09-07T01:32:52;1.90;;;1.80;;
13347;SDS011;6743;49.934;9.138;2023-09-07T01:35:18;2.15;;;1.92;;
13347;SDS011;6743;49.934;9.138;2023-09-07T01:37:46;2.20;;;2.00;;
13347;SDS011;6743;49.934;9.138;2023-09-07T01:40:13;2.25;;;2.05;;
13347;SDS011;6743;49.934;9.138;2023-09-07T01:42:40;2.35;;;2.10;;
13347;SDS011;6743;49.934;9.138;2023-09-07T01:45:06;1.87;;;1.77;;
13347;SDS011;6743;49.934;9.138;2023-09-07T01:47:33;1.77;;;1.67;;
13347;SDS011;6743;49.934;9.138;2023-09-07T01:49:59;2.95;;;2.05;;
13347;SDS011;6743;49.934;9.138;2023-09-07T01:52:25;1.73;;;1.50;;
13347;SDS011;6743;49.934;9.138;2023-09-07T01:54:51;2.15;;;1.73;;
13347;SDS011;6743;49.934;9.138;2023-09-07T01:57:17;1.52;;;1.42;;
13347;SDS011;6743;49.934;9.138;2023-09-07T01:59:43;1.60;;;1.50;;
13347;SDS011;6743;49.934;9.138;2023-09-07T02:02:09;2.12;;;1.87;;
13347;SDS011;6743;49.934;9.138;2023-09-07T02:04:35;1.75;;;1.62;;
13347;SDS011;6743;49.934;9.138;2023-09-07T02:07:01;1.87;;;1.52;;
13347;SDS011;6743;49.934;9.138;2023-09-07T02:09:29;1.60;;;1.50;;
13347;SDS011;6743;49.934;9.138;2023-09-07T02:11:55;1.62;;;1.52;;
13347;SDS011;6743;49.934;9.138;2023-09-07T02:14:22;1.73;;;1.62;;
13347;SDS011;6743;49.934;9.138;2023-09-07T02:16:48;1.70;;;1.60;;
13347;SDS011;6743;49.934;9.138;2023-09-07T02:19:14;1.90;;;1.80;;
13347;SDS011;6743;49.934;9.138;2023-09-07T02:21:40;1.77;;;1.67;;
13347;SDS011;6743;49.934;9.138;2023-09-07T02:24:06;1.80;;;1.70;;
13347;SDS011;6743;49.934;9.138;2023-09-07T02:26:32;1.42;;;1.33;;
13347;SDS011;6743;49.934;9.138;2023-09-07T02:28:58;2.28;;;2.08;;
13347;SDS011;6743;49.934;9.138;2023-09-07T02:31:25;2.12;;;1.90;;
13347;SDS011;6743;49.934;9.138;2023-09-07T02:33:51;1.50;;;1.40;;
13347;SDS011;6743;49.934;9.138;2023-09-07T02:36:17;2.58;;;2.00;;
13347;SDS011;6743;49.934;9.138;2023-09-07T02:38:43;1.90;;;1.80;;
13347;SDS011;6743;49.934;9.138;2023-09-07T02:41:09;1.92;;;1.80;;
13347;SDS011;6743;49.934;9.138;2023-09-07T02:43:35;2.05;;;1.87;;
13347;SDS011;6743;49.934;9.138;2023-09-07T02:46:01;2.12;;;1.90;;
13347;SDS011;6743;49.934;9.138;2023-09-07T02:48:27;1.80;;;1.60;;
13347;SDS011;6743;49.934;9.138;2023-09-07T02:50:53;1.62;;;1.52;;
13347;SDS011;6743;49.934;9.138;2023-09-07T02:53:19;1.85;;;1.70;;
13347;SDS011;6743;49.934;9.138;2023-09-07T02:55:45;2.15;;;2.05;;
13347;SDS011;6743;49.934;9.138;2023-09-07T02:58:11;2.53;;;2.00;;
13347;SDS011;6743;49.934;9.138;2023-09-07T03:00:41;3.17;;;1.98;;
13347;SDS011;6743;49.934;9.138;2023-09-07T03:03:09;2.00;;;1.80;;
13347;SDS011;6743;49.934;9.138;2023-09-07T03:05:36;1.52;;;1.42;;
13347;SDS011;6743;49.934;9.138;2023-09-07T03:08:02;2.35;;;1.80;;
13347;SDS011;6743;49.934;9.138;2023-09-07T03:10:28;1.95;;;1.80;;
13347;SDS011;6743;49.934;9.138;2023-09-07T03:12:54;1.90;;;1.80;;
13347;SDS011;6743;49.934;9.138;2023-09-07T03:15:20;2.20;;;1.95;;
13347;SDS011;6743;49.934;9.138;2023-09-07T03:17:47;1.90;;;1.80;;
13347;SDS011;6743;49.934;9.138;2023-09-07T03:20:13;2.17;;;1.70;;
13347;SDS011;6743;49.934;9.138;2023-09-07T03:22:40;1.70;;;1.60;;
13347;SDS011;6743;49.934;9.138;2023-09-07T03:25:07;2.00;;;1.90;;
13347;SDS011;6743;49.934;9.138;2023-09-07T03:27:34;1.95;;;1.83;;
13347;SDS011;6743;49.934;9.138;2023-09-07T03:30:00;1.98;;;1.60;;
13347;SDS011;6743;49.934;9.138;2023-09-07T03:32:26;1.60;;;1.50;;
13347;SDS011;6743;49.934;9.138;2023-09-07T03:34:56;1.70;;;1.60;;
13347;SDS011;6743;49.934;9.138;2023-09-07T03:37:22;1.70;;;1.60;;
13347;SDS011;6743;49.934;9.138;2023-09-07T03:39:49;1.85;;;1.75;;
13347;SDS011;6743;49.934;9.138;2023-09-07T03:42:15;2.08;;;1.98;;
13347;SDS011;6743;49.934;9.138;2023-09-07T03:44:41;2.10;;;1.90;;
13347;SDS011;6743;49.934;9.138;2023-09-07T03:47:07;2.03;;;1.83;;
13347;SDS011;6743;49.934;9.138;2023-09-07T03:49:34;2.05;;;1.87;;
13347;SDS011;6743;49.934;9.138;2023-09-07T03:52:00;2.10;;;2.00;;
13347;SDS011;6743;49.934;9.138;2023-09-07T03:54:26;1.75;;;1.60;;
13347;SDS011;6743;49.934;9.138;2023-09-07T03:56:52;2.45;;;2.03;;
13347;SDS011;6743;49.934;9.138;2023-09-07T03:59:19;2.03;;;1.75;;
13347;SDS011;6743;49.934;9.138;2023-09-07T04:01:45;2.45;;;2.08;;
13347;SDS011;6743;49.934;9.138;2023-09-07T04:04:11;2.17;;;1.98;;
13347;SDS011;6743;49.934;9.138;2023-09-07T04:06:37;2.62;;;2.42;;
13347;SDS011;6743;49.934;9.138;2023-09-07T04:09:03;2.28;;;2.08;;
13347;SDS011;6743;49.934;9.138;2023-09-07T04:11:29;1.70;;;1.60;;
13347;SDS011;6743;49.934;9.138;2023-09-07T04:13:56;2.00;;;1.90;;
13347;SDS011;6743;49.934;9.138;2023-09-07T04:16:22;2.05;;;1.87;;
13347;SDS011;6743;49.934;9.138;2023-09-07T04:18:48;1.87;;;1.67;;
13347;SDS011;6743;49.934;9.138;2023-09-07T04:21:14;2.22;;;2.03;;
13347;SDS011;6743;49.934;9.138;2023-09-07T04:23:40;2.28;;;2.08;;
13347;SDS011;6743;49.934;9.138;2023-09-07T04:26:06;1.45;;;1.35;;
13347;SDS011;6743;49.934;9.138;2023-09-07T04:28:33;2.33;;;2.12;;
13347;SDS011;6743;49.934;9.138;2023-09-07T04:31:00;2.17;;;1.98;;
13347;SDS011;6743;49.934;9.138;2023-09-07T04:33:26;2.30;;;2.08;;
13347;SDS011;6743;49.934;9.138;2023-09-07T04:35:52;2.08;;;1.85;;
13347;SDS011;6743;49.934;9.138;2023-09-07T04:38:18;1.95;;;1.85;;
13347;SDS011;6743;49.934;9.138;2023-09-07T04:40:44;2.10;;;1.92;;
13347;SDS011;6743;49.934;9.138;2023-09-07T04:43:10;2.25;;;1.92;;
13347;SDS011;6743;49.934;9.138;2023-09-07T04:45:35;1.80;;;1.70;;
13347;SDS011;6743;49.934;9.138;2023-09-07T04:48:03;2.58;;;2.28;;
13347;SDS011;6743;49.934;9.138;2023-09-07T04:50:29;2.33;;;1.73;;
13347;SDS011;6743;49.934;9.138;2023-09-07T04:52:55;2.60;;;2.40;;
13347;SDS011;6743;49.934;9.138;2023-09-07T04:55:21;2.62;;;1.70;;
13347;SDS011;6743;49.934;9.138;2023-09-07T04:57:48;1.80;;;1.70;;
13347;SDS011;6743;49.934;9.138;2023-09-07T05:00:14;2.25;;;2.05;;
13347;SDS011;6743;49.934;9.138;2023-09-07T05:02:41;2.30;;;2.10;;
13347;SDS011;6743;49.934;9.138;2023-09-07T05:05:09;2.47;;;2.28;;
13347;SDS011;6743;49.934;9.138;2023-09-07T05:07:35;2.30;;;2.10;;
13347;SDS011;6743;49.934;9.138;2023-09-07T05:10:01;1.98;;;1.87;;
13347;SDS011;6743;49.934;9.138;2023-09-07T05:12:28;3.15;;;2.55;;
13347;SDS011;6743;49.934;9.138;2023-09-07T05:14:54;2.15;;;2.03;;
13347;SDS011;6743;49.934;9.138;2023-09-07T05:17:20;2.37;;;2.17;;
13347;SDS011;6743;49.934;9.138;2023-09-07T05:19:46;2.37;;;2.22;;
13347;SDS011;6743;49.934;9.138;2023-09-07T05:22:12;2.60;;;2.30;;
13347;SDS011;6743;49.934;9.138;2023-09-07T05:24:38;2.50;;;2.03;;
13347;SDS011;6743;49.934;9.138;2023-09-07T05:27:05;2.50;;;2.30;;
13347;SDS011;6743;49.934;9.138;2023-09-07T05:29:32;3.15;;;2.35;;
13347;SDS011;6743;49.934;9.138;2023-09-07T05:31:57;3.83;;;2.47;;
13347;SDS011;6743;49.934;9.138;2023-09-07T05:34:23;3.20;;;2.20;;
13347;SDS011;6743;49.934;9.138;2023-09-07T05:36:49;3.28;;;2.20;;
13347;SDS011;6743;49.934;9.138;2023-09-07T05:39:16;3.20;;;2.67;;
13347;SDS011;6743;49.934;9.138;2023-09-07T05:41:42;2.15;;;1.92;;
13347;SDS011;6743;49.934;9.138;2023-09-07T05:44:08;2.78;;;2.58;;
13347;SDS011;6743;49.934;9.138;2023-09-07T05:46:34;2.72;;;2.53;;
13347;SDS011;6743;49.934;9.138;2023-09-07T05:49:00;2.40;;;2.20;;
13347;SDS011;6743;49.934;9.138;2023-09-07T05:51:26;2.37;;;2.08;;
13347;SDS011;6743;49.934;9.138;2023-09-07T05:53:53;2.47;;;2.28;;
13347;SDS011;6743;49.934;9.138;2023-09-07T05:56:21;2.40;;;2.20;;
13347;SDS011;6743;49.934;9.138;2023-09-07T05:58:47;1.98;;;1.87;;
13347;SDS011;6743;49.934;9.138;2023-09-07T06:01:13;3.50;;;2.12;;
13347;SDS011;6743;49.934;9.138;2023-09-07T06:03:39;2.60;;;2.12;;
13347;SDS011;6743;49.934;9.138;2023-09-07T06:06:06;5.97;;;2.47;;
13347;SDS011;6743;49.934;9.138;2023-09-07T06:08:32;2.30;;;2.15;;
13347;SDS011;6743;49.934;9.138;2023-09-07T06:10:58;3.10;;;2.35;;
13347;SDS011;6743;49.934;9.138;2023-09-07T06:13:25;4.40;;;1.98;;
13347;SDS011;6743;49.934;9.138;2023-09-07T06:15:51;2.70;;;2.22;;
13347;SDS011;6743;49.934;9.138;2023-09-07T06:18:17;3.05;;;2.60;;
13347;SDS011;6743;49.934;9.138;2023-09-07T06:20:43;2.30;;;2.20;;
13347;SDS011;6743;49.934;9.138;2023-09-07T06:23:09;2.25;;;2.00;;
13347;SDS011;6743;49.934;9.138;2023-09-07T06:25:35;4.15;;;2.53;;
13347;SDS011;6743;49.934;9.138;2023-09-07T06:28:01;2.70;;;2.50;;
13347;SDS011;6743;49.934;9.138;2023-09-07T06:30:27;2.42;;;2.05;;
13347;SDS011;6743;49.934;9.138;2023-09-07T06:32:53;2.47;;;2.20;;
13347;SDS011;6743;49.934;9.138;2023-09-07T06:35:21;3.05;;;2.60;;
13347;SDS011;6743;49.934;9.138;2023-09-07T06:37:49;2.22;;;2.05;;
13347;SDS011;6743;49.934;9.138;2023-09-07T06:40:15;3.25;;;2.53;;
13347;SDS011;6743;49.934;9.138;2023-09-07T06:42:42;2.15;;;1.92;;
13347;SDS011;6743;49.934;9.138;2023-09-07T06:45:09;2.20;;;2.08;;
13347;SDS011;6743;49.934;9.138;2023-09-07T06:47:35;3.20;;;2.90;;
13347;SDS011;6743;49.934;9.138;2023-09-07T06:50:02;3.30;;;3.00;;
13347;SDS011;6743;49.934;9.138;2023-09-07T06:52:28;3.30;;;2.62;;
13347;SDS011;6743;49.934;9.138;2023-09-07T06:54:54;3.03;;;2.47;;
13347;SDS011;6743;49.934;9.138;2023-09-07T06:57:20;2.80;;;2.58;;
13347;SDS011;6743;49.934;9.138;2023-09-07T06:59:46;3.00;;;2.70;;
13347;SDS011;6743;49.934;9.138;2023-09-07T07:02:13;4.70;;;2.87;;
13347;SDS011;6743;49.934;9.138;2023-09-07T07:04:39;3.55;;;2.65;;
13347;SDS011;6743;49.934;9.138;2023-09-07T07:07:05;2.58;;;2.30;;
13347;SDS011;6743;49.934;9.138;2023-09-07T07:09:31;2.55;;;2.25;;
13347;SDS011;6743;49.934;9.138;2023-09-07T07:11:59;3.03;;;2.28;;
13347;SDS011;6743;49.934;9.138;2023-09-07T07:14:25;3.28;;;2.95;;
13347;SDS011;6743;49.934;9.138;2023-09-07T07:16:51;4.25;;;2.40;;
13347;SDS011;6743;49.934;9.138;2023-09-07T07:19:17;3.00;;;2.45;;
13347;SDS011;6743;49.934;9.138;2023-09-07T07:21:44;3.67;;;2.35;;
13347;SDS011;6743;49.934;9.138;2023-09-07T07:24:10;3.37;;;2.20;;
13347;SDS011;6743;49.934;9.138;2023-09-07T07:26:36;3.17;;;2.20;;
13347;SDS011;6743;49.934;9.138;2023-09-07T07:29:02;4.50;;;2.87;;
13347;SDS011;6743;49.934;9.138;2023-09-07T07:31:28;2.58;;;2.37;;
13347;SDS011;6743;49.934;9.138;2023-09-07T07:33:54;2.90;;;2.70;;
13347;SDS011;6743;49.934;9.138;2023-09-07T07:36:21;2.37;;;2.15;;
13347;SDS011;6743;49.934;9.138;2023-09-07T07:38:47;3.00;;;2.40;;
13347;SDS011;6743;49.934;9.138;2023-09-07T07:41:13;2.33;;;2.12;;
13347;SDS011;6743;49.934;9.138;2023-09-07T07:43:39;2.37;;;2.17;;
13347;SDS011;6743;49.934;9.138;2023-09-07T07:46:05;2.45;;;2.25;;
13347;SDS011;6743;49.934;9.138;2023-09-07T07:48:32;3.12;;;2.40;;
13347;SDS011;6743;49.934;9.138;2023-09-07T07:51:02;2.42;;;2.22;;
13347;SDS011;6743;49.934;9.138;2023-09-07T07:53:28;2.33;;;1.92;;
13347;SDS011;6743;49.934;9.138;2023-09-07T07:55:55;2.50;;;2.30;;
13347;SDS011;6743;49.934;9.138;2023-09-07T07:58:21;2.17;;;2.00;;
13347;SDS011;6743;49.934;9.138;2023-09-07T08:00:47;2.15;;;1.98;;
13347;SDS011;6743;49.934;9.138;2023-09-07T08:03:14;2.53;;;2.33;;
13347;SDS011;6743;49.934;9.138;2023-09-07T08:05:40;1.95;;;1.85;;
13347;SDS011;6743;49.934;9.138;2023-09-07T08:08:06;2.40;;;2.15;;
13347;SDS011;6743;49.934;9.138;2023-09-07T08:10:33;2.40;;;2.20;;
13347;SDS011;6743;49.934;9.138;2023-09-07T08:13:02;2.25;;;1.85;;
13347;SDS011;6743;49.934;9.138;2023-09-07T08:15:28;2.08;;;1.87;;
13347;SDS011;6743;49.934;9.138;2023-09-07T08:17:55;2.30;;;2.10;;
13347;SDS011;6743;49.934;9.138;2023-09-07T08:20:21;2.00;;;1.80;;
13347;SDS011;6743;49.934;9.138;2023-09-07T08:22:48;2.15;;;2.05;;
13347;SDS011;6743;49.934;9.138;2023-09-07T08:25:14;2.40;;;2.20;;
13347;SDS011;6743;49.934;9.138;2023-09-07T08:27:40;2.22;;;2.03;;
13347;SDS011;6743;49.934;9.138;2023-09-07T08:30:11;2.25;;;2.05;;
13347;SDS011;6743;49.934;9.138;2023-09-07T08:32:39;1.98;;;1.77;;
13347;SDS011;6743;49.934;9.138;2023-09-07T08:35:05;1.85;;;1.73;;
13347;SDS011;6743;49.934;9.138;2023-09-07T08:37:34;2.20;;;2.00;;
13347;SDS011;6743;49.934;9.138;2023-09-07T08:40:00;2.60;;;2.15;;
13347;SDS011;6743;49.934;9.138;2023-09-07T08:42:27;2.25;;;2.05;;
13347;SDS011;6743;49.934;9.138;2023-09-07T08:44:53;3.53;;;2.35;;
13347;SDS011;6743;49.934;9.138;2023-09-07T08:47:24;2.53;;;2.33;;
13347;SDS011;6743;49.934;9.138;2023-09-07T08:49:51;4.37;;;2.28;;
13347;SDS011;6743;49.934;9.138;2023-09-07T08:52:18;2.22;;;2.03;;
13347;SDS011;6743;49.934;9.138;2023-09-07T08:54:45;2.28;;;2.08;;
13347;SDS011;6743;49.934;9.138;2023-09-07T08:57:12;2.17;;;1.98;;
13347;SDS011;6743;49.934;9.138;2023-09-07T08:59:40;2.25;;;1.90;;
13347;SDS011;6743;49.934;9.138;2023-09-07T09:02:07;2.12;;;1.98;;
13347;SDS011;6743;49.934;9.138;2023-09-07T09:04:36;2.30;;;1.62;;
13347;SDS011;6743;49.934;9.138;2023-09-07T09:07:02;2.25;;;2.05;;
13347;SDS011;6743;49.934;9.138;2023-09-07T09:09:29;2.05;;;1.95;;
13347;SDS011;6743;49.934;9.138;2023-09-07T09:11:57;2.37;;;2.00;;
13347;SDS011;6743;49.934;9.138;2023-09-07T09:14:32;1.98;;;1.80;;
13347;SDS011;6743;49.934;9.138;2023-09-07T09:16:58;2.22;;;2.12;;
13347;SDS011;6743;49.934;9.138;2023-09-07T09:19:29;2.30;;;2.00;;
13347;SDS011;6743;49.934;9.138;2023-09-07T09:21:57;2.58;;;2.37;;
13347;SDS011;6743;49.934;9.138;2023-09-07T09:24:25;2.15;;;1.73;;
13347;SDS011;6743;49.934;9.138;2023-09-07T09:26:51;2.03;;;1.67;;
13347;SDS011;6743;49.934;9.138;2023-09-07T09:29:21;2.03;;;1.80;;
13347;SDS011;6743;49.934;9.138;2023-09-07T09:31:48;2.15;;;1.80;;
13347;SDS011;6743;49.934;9.138;2023-09-07T09:34:14;2.00;;;1.90;;
13347;SDS011;6743;49.934;9.138;2023-09-07T09:36:41;2.25;;;1.90;;
13347;SDS011;6743;49.934;9.138;2023-09-07T09:39:09;1.98;;;1.87;;
13347;SDS011;6743;49.934;9.138;2023-09-07T09:41:35;2.25;;;1.75;;
13347;SDS011;6743;49.934;9.138;2023-09-07T09:44:04;2.10;;;1.92;;
13347;SDS011;6743;49.934;9.138;2023-09-07T09:46:31;2.08;;;1.98;;
13347;SDS011;6743;49.934;9.138;2023-09-07T09:48:58;1.98;;;1.75;;
13347;SDS011;6743;49.934;9.138;2023-09-07T09:51:25;2.12;;;2.03;;
13347;SDS011;6743;49.934;9.138;2023-09-07T09:53:54;1.95;;;1.85;;
13347;SDS011;6743;49.934;9.138;2023-09-07T09:56:22;1.92;;;1.83;;
13347;SDS011;6743;49.934;9.138;2023-09-07T09:58:48;1.60;;;1.50;;
13347;SDS011;6743;49.934;9.138;2023-09-07T10:01:14;1.98;;;1.87;;
13347;SDS011;6743;49.934;9.138;2023-09-07T10:03:42;1.75;;;1.62;;
13347;SDS011;6743;49.934;9.138;2023-09-07T10:06:11;2.37;;;1.95;;
13347;SDS011;6743;49.934;9.138;2023-09-07T10:08:50;1.77;;;1.67;;
13347;SDS011;6743;49.934;9.138;2023-09-07T10:11:25;2.65;;;2.17;;
13347;SDS011;6743;49.934;9.138;2023-09-07T10:13:56;1.80;;;1.70;;
13347;SDS011;6743;49.934;9.138;2023-09-07T10:16:23;1.70;;;1.60;;
13347;SDS011;6743;49.934;9.138;2023-09-07T10:18:49;1.52;;;1.52;;
13347;SDS011;6743;49.934;9.138;2023-09-07T10:21:15;2.17;;;1.80;;
13347;SDS011;6743;49.934;9.138;2023-09-07T10:23:42;2.20;;;1.70;;
13347;SDS011;6743;49.934;9.138;2023-09-07T10:26:10;1.52;;;1.42;;
13347;SDS011;6743;49.934;9.138;2023-09-07T10:28:38;1.60;;;1.50;;
13347;SDS011;6743;49.934;9.138;2023-09-07T10:31:05;1.40;;;1.30;;
13347;SDS011;6743;49.934;9.138;2023-09-07T10:33:32;1.70;;;1.60;;
13347;SDS011;6743;49.934;9.138;2023-09-07T10:35:59;1.33;;;1.27;;
13347;SDS011;6743;49.934;9.138;2023-09-07T10:38:26;1.67;;;1.58;;
13347;SDS011;6743;49.934;9.138;2023-09-07T10:40:56;1.60;;;1.50;;
13347;SDS011;6743;49.934;9.138;2023-09-07T10:43:23;2.55;;;1.80;;
13347;SDS011;6743;49.934;9.138;2023-09-07T10:45:49;1.50;;;1.40;;
13347;SDS011;6743;49.934;9.138;2023-09-07T10:48:15;2.15;;;1.80;;
13347;SDS011;6743;49.934;9.138;2023-09-07T10:50:42;1.50;;;1.40;;
13347;SDS011;6743;49.934;9.138;2023-09-07T10:53:09;1.55;;;1.45;;
13347;SDS011;6743;49.934;9.138;2023-09-07T10:55:38;1.80;;;1.70;;
13347;SDS011;6743;49.934;9.138;2023-09-07T10:58:05;1.70;;;1.60;;
13347;SDS011;6743;49.934;9.138;2023-09-07T11:00:31;1.83;;;1.73;;
13347;SDS011;6743;49.934;9.138;2023-09-07T11:02:58;1.80;;;1.70;;
13347;SDS011;6743;49.934;9.138;2023-09-07T11:05:24;1.98;;;1.85;;
13347;SDS011;6743;49.934;9.138;2023-09-07T11:07:50;1.62;;;1.52;;
13347;SDS011;6743;49.934;9.138;2023-09-07T11:10:16;1.80;;;1.65;;
13347;SDS011;6743;49.934;9.138;2023-09-07T11:12:42;1.60;;;1.50;;
13347;SDS011;6743;49.934;9.138;2023-09-07T11:15:08;1.67;;;1.58;;
13347;SDS011;6743;49.934;9.138;2023-09-07T11:17:36;1.60;;;1.48;;
13347;SDS011;6743;49.934;9.138;2023-09-07T11:20:05;1.80;;;1.70;;
13347;SDS011;6743;49.934;9.138;2023-09-07T11:22:32;1.60;;;1.50;;
13347;SDS011;6743;49.934;9.138;2023-09-07T11:25:00;1.77;;;1.67;;
13347;SDS011;6743;49.934;9.138;2023-09-07T11:27:28;1.77;;;1.67;;
13347;SDS011;6743;49.934;9.138;2023-09-07T11:29:55;2.00;;;1.90;;
13347;SDS011;6743;49.934;9.138;2023-09-07T11:32:22;2.35;;;1.70;;
13347;SDS011;6743;49.934;9.138;2023-09-07T11:34:49;1.55;;;1.45;;
13347;SDS011;6743;49.934;9.138;2023-09-07T11:37:17;1.37;;;1.27;;
13347;SDS011;6743;49.934;9.138;2023-09-07T11:39:44;1.70;;;1.60;;
13347;SDS011;6743;49.934;9.138;2023-09-07T11:42:10;1.67;;;1.58;;
13347;SDS011;6743;49.934;9.138;2023-09-07T11:44:36;1.55;;;1.45;;
13347;SDS011;6743;49.934;9.138;2023-09-07T11:47:02;1.87;;;1.70;;
13347;SDS011;6743;49.934;9.138;2023-09-07T11:49:29;1.77;;;1.67;;
13347;SDS011;6743;49.934;9.138;2023-09-07T11:51:57;1.45;;;1.35;;
13347;SDS011;6743;49.934;9.138;2023-09-07T11:54:23;1.80;;;1.70;;
13347;SDS011;6743;49.934;9.138;2023-09-07T11:56:49;1.60;;;1.50;;
13347;SDS011;6743;49.934;9.138;2023-09-07T11:59:15;1.20;;;1.20;;
13347;SDS011;6743;49.934;9.138;2023-09-07T12:01:42;1.40;;;1.30;;
13347;SDS011;6743;49.934;9.138;2023-09-07T12:04:08;1.50;;;1.40;;
13347;SDS011;6743;49.934;9.138;2023-09-07T12:06:35;1.77;;;1.67;;
13347;SDS011;6743;49.934;9.138;2023-09-07T12:09:02;1.50;;;1.40;;
13347;SDS011;6743;49.934;9.138;2023-09-07T12:11:30;1.60;;;1.50;;
13347;SDS011;6743;49.934;9.138;2023-09-07T12:13:56;1.73;;;1.62;;
13347;SDS011;6743;49.934;9.138;2023-09-07T12:16:22;1.95;;;1.33;;
13347;SDS011;6743;49.934;9.138;2023-09-07T12:18:48;1.48;;;1.37;;
13347;SDS011;6743;49.934;9.138;2023-09-07T12:21:14;1.70;;;1.52;;
13347;SDS011;6743;49.934;9.138;2023-09-07T12:23:40;1.50;;;1.40;;
13347;SDS011;6743;49.934;9.138;2023-09-07T12:26:06;2.17;;;1.50;;
13347;SDS011;6743;49.934;9.138;2023-09-07T12:28:34;1.70;;;1.60;;
13347;SDS011;6743;49.934;9.138;2023-09-07T12:31:01;1.65;;;1.48;;
13347;SDS011;6743;49.934;9.138;2023-09-07T12:33:27;1.50;;;1.40;;
13347;SDS011;6743;49.934;9.138;2023-09-07T12:35:55;1.58;;;1.48;;
13347;SDS011;6743;49.934;9.138;2023-09-07T12:38:21;1.77;;;1.67;;
13347;SDS011;6743;49.934;9.138;2023-09-07T12:40:52;1.40;;;1.30;;
13347;SDS011;6743;49.934;9.138;2023-09-07T12:43:18;1.52;;;1.42;;
13347;SDS011;6743;49.934;9.138;2023-09-07T12:45:45;1.50;;;1.50;;
13347;SDS011;6743;49.934;9.138;2023-09-07T12:48:11;3.28;;;1.75;;
13347;SDS011;6743;49.934;9.138;2023-09-07T12:50:37;1.80;;;1.60;;
13347;SDS011;6743;49.934;9.138;2023-09-07T12:53:04;1.98;;;1.60;;
13347;SDS011;6743;49.934;9.138;2023-09-07T12:55:30;1.92;;;1.73;;
13347;SDS011;6743;49.934;9.138;2023-09-07T12:57:56;2.25;;;1.62;;
13347;SDS011;6743;49.934;9.138;2023-09-07T13:00:22;1.98;;;1.52;;
13347;SDS011;6743;49.934;9.138;2023-09-07T13:02:49;1.50;;;1.40;;
13347;SDS011;6743;49.934;9.138;2023-09-07T13:05:15;1.70;;;1.60;;
13347;SDS011;6743;49.934;9.138;2023-09-07T13:07:41;1.85;;;1.40;;
13347;SDS011;6743;49.934;9.138;2023-09-07T13:10:09;1.62;;;1.52;;
13347;SDS011;6743;49.934;9.138;2023-09-07T13:12:36;1.83;;;1.73;;
13347;SDS011;6743;49.934;9.138;2023-09-07T13:15:02;1.75;;;1.62;;
13347;SDS011;6743;49.934;9.138;2023-09-07T13:17:29;1.70;;;1.60;;
13347;SDS011;6743;49.934;9.138;2023-09-07T13:19:55;1.60;;;1.50;;
13347;SDS011;6743;49.934;9.138;2023-09-07T13:22:22;1.37;;;1.27;;
13347;SDS011;6743;49.934;9.138;2023-09-07T13:24:48;1.87;;;1.37;;
13347;SDS011;6743;49.934;9.138;2023-09-07T13:27:14;1.65;;;1.55;;
13347;SDS011;6743;49.934;9.138;2023-09-07T13:29:40;1.50;;;1.40;;
13347;SDS011;6743;49.934;9.138;2023-09-07T13:32:06;1.60;;;1.50;;
13347;SDS011;6743;49.934;9.138;2023-09-07T13:34:32;1.70;;;1.60;;
13347;SDS011;6743;49.934;9.138;2023-09-07T13:36:59;1.60;;;1.50;;
13347;SDS011;6743;49.934;9.138;2023-09-07T13:39:25;1.65;;;1.55;;
13347;SDS011;6743;49.934;9.138;2023-09-07T13:41:50;1.45;;;1.35;;
13347;SDS011;6743;49.934;9.138;2023-09-07T13:44:16;1.65;;;1.55;;
13347;SDS011;6743;49.934;9.138;2023-09-07T13:46:43;1.75;;;1.65;;
13347;SDS011;6743;49.934;9.138;2023-09-07T13:49:10;2.45;;;1.50;;
13347;SDS011;6743;49.934;9.138;2023-09-07T13:51:36;1.73;;;1.62;;
13347;SDS011;6743;49.934;9.138;2023-09-07T13:54:03;1.33;;;1.23;;
13347;SDS011;6743;49.934;9.138;2023-09-07T13:56:30;1.50;;;1.45;;
13347;SDS011;6743;49.934;9.138;2023-09-07T13:58:56;1.45;;;1.35;;
13347;SDS011;6743;49.934;9.138;2023-09-07T14:01:22;1.62;;;1.52;;
13347;SDS011;6743;49.934;9.138;2023-09-07T14:03:48;1.50;;;1.40;;
13347;SDS011;6743;49.934;9.138;2023-09-07T14:06:14;1.95;;;1.70;;
13347;SDS011;6743;49.934;9.138;2023-09-07T14:08:40;1.42;;;1.33;;
13347;SDS011;6743;49.934;9.138;2023-09-07T14:11:07;1.60;;;1.50;;
13347;SDS011;6743;49.934;9.138;2023-09-07T14:13:33;2.08;;;1.48;;
13347;SDS011;6743;49.934;9.138;2023-09-07T14:16:00;2.78;;;1.55;;
13347;SDS011;6743;49.934;9.138;2023-09-07T14:18:26;1.40;;;1.27;;
13347;SDS011;6743;49.934;9.138;2023-09-07T14:20:52;1.55;;;1.45;;
13347;SDS011;6743;49.934;9.138;2023-09-07T14:23:18;2.15;;;1.75;;
13347;SDS011;6743;49.934;9.138;2023-09-07T14:25:45;1.30;;;1.20;;
13347;SDS011;6743;49.934;9.138;2023-09-07T14:28:13;1.50;;;1.40;;
13347;SDS011;6743;49.934;9.138;2023-09-07T14:30:39;1.40;;;1.30;;
13347;SDS011;6743;49.934;9.138;2023-09-07T14:33:05;1.87;;;1.77;;
13347;SDS011;6743;49.934;9.138;2023-09-07T14:35:31;1.42;;;1.33;;
13347;SDS011;6743;49.934;9.138;2023-09-07T14:37:57;1.52;;;1.42;;
13347;SDS011;6743;49.934;9.138;2023-09-07T14:40:23;1.58;;;1.48;;
13347;SDS011;6743;49.934;9.138;2023-09-07T14:42:49;1.60;;;1.50;;
13347;SDS011;6743;49.934;9.138;2023-09-07T14:45:16;1.12;;;1.12;;
13347;SDS011;6743;49.934;9.138;2023-09-07T14:47:44;1.25;;;1.20;;
13347;SDS011;6743;49.934;9.138;2023-09-07T14:50:10;1.40;;;1.30;;
13347;SDS011;6743;49.934;9.138;2023-09-07T14:52:36;1.52;;;1.35;;
13347;SDS011;6743;49.934;9.138;2023-09-07T14:55:06;1.50;;;1.40;;
13347;SDS011;6743;49.934;9.138;2023-09-07T14:57:33;1.05;;;1.05;;